Time;durP1;ratioP1;P1;durP2;ratioP2;P2;SDS_P1;SDS_P2;PMS_P1;PMS_P2;Temp;Humidity;BMP_temperature;BMP_pressure;BME280_temperature;BME280_humidity;BME280_pressure;Samples;Min_cycle;Max_cycle;Signal;HPM_P1;HPM_P2
2021/06/09 00:01:46;;;;;;;9.10;7.50;;;17.00;99.60;;;;;;4977255;28;20452;-59
2021/06/09 00:04:14;;;;;;;9.17;8.30;;;17.20;99.20;;;;;;4975198;28;20451;-59
2021/06/09 00:06:42;;;;;;;10.63;9.13;;;17.20;99.10;;;;;;4978391;28;20425;-58
2021/06/09 00:09:09;;;;;;;7.53;6.83;;;17.20;98.90;;;;;;4979004;28;20453;-58
2021/06/09 00:11:36;;;;;;;9.47;8.67;;;17.30;98.50;;;;;;4977591;28;20503;-58
2021/06/09 00:14:04;;;;;;;8.43;7.57;;;17.40;98.30;;;;;;4977575;28;20469;-59
2021/06/09 00:16:32;;;;;;;10.70;8.47;;;17.20;98.50;;;;;;4979549;28;20823;-59
2021/06/09 00:18:59;;;;;;;8.93;7.60;;;17.20;98.50;;;;;;4977850;28;20920;-59
2021/06/09 00:21:26;;;;;;;8.93;7.90;;;17.30;98.30;;;;;;4976728;28;20443;-58
2021/06/09 00:23:53;;;;;;;12.73;8.10;;;17.30;98.60;;;;;;4979548;28;20458;-58
2021/06/09 00:26:22;;;;;;;9.97;8.73;;;17.20;98.60;;;;;;4975274;28;20450;-60
2021/06/09 00:28:50;;;;;;;8.70;7.87;;;17.70;98.90;;;;;;4979167;28;20501;-59
2021/06/09 00:31:18;;;;;;;9.60;8.60;;;17.50;98.00;;;;;;4978467;28;20429;-59
2021/06/09 00:33:46;;;;;;;14.20;7.87;;;17.60;97.90;;;;;;4969864;28;20487;-59
2021/06/09 00:36:13;;;;;;;8.90;8.00;;;17.60;97.80;;;;;;4960006;28;20482;-59
2021/06/09 00:38:40;;;;;;;15.37;10.53;;;17.70;97.50;;;;;;4973544;28;20468;-60
2021/06/09 00:41:10;;;;;;;21.27;9.00;;;17.50;97.80;;;;;;4977155;28;20453;-58
2021/06/09 00:43:38;;;;;;;13.60;9.47;;;17.50;97.90;;;;;;4966560;28;20487;-58
2021/06/09 00:46:07;;;;;;;9.83;8.73;;;17.60;97.60;;;;;;4973084;28;20672;-58
2021/06/09 00:48:38;;;;;;;13.50;8.40;;;17.60;97.70;;;;;;4972312;28;20476;-58
2021/06/09 00:51:09;;;;;;;10.00;8.47;;;17.60;97.70;;;;;;4979544;28;20447;-59
2021/06/09 00:53:38;;;;;;;10.17;9.17;;;17.70;97.60;;;;;;4977117;28;20489;-58
2021/06/09 00:56:09;;;;;;;10.17;9.17;;;17.70;97.70;;;;;;4978984;28;20464;-60
2021/06/09 00:58:38;;;;;;;8.17;7.47;;;17.60;97.90;;;;;;4977348;28;20425;-60
2021/06/09 01:01:06;;;;;;;9.60;8.70;;;17.60;98.00;;;;;;4976827;28;20452;-60
2021/06/09 01:03:34;;;;;;;10.00;9.10;;;17.60;98.00;;;;;;4978226;28;20486;-58
2021/06/09 01:06:03;;;;;;;9.03;7.80;;;17.80;97.70;;;;;;4975772;28;20458;-59
2021/06/09 01:08:38;;;;;;;8.60;7.90;;;17.90;97.60;;;;;;4977134;28;20422;-59
2021/06/09 01:11:16;;;;;;;8.43;7.73;;;17.80;97.70;;;;;;4978124;28;20535;-60
2021/06/09 01:13:44;;;;;;;10.13;8.23;;;17.90;97.80;;;;;;4976182;28;20456;-58
2021/06/09 01:16:12;;;;;;;8.73;7.93;;;17.90;97.80;;;;;;4975604;28;20419;-58
2021/06/09 01:18:42;;;;;;;9.10;8.30;;;17.80;98.00;;;;;;4978569;28;20433;-58
2021/06/09 01:21:10;;;;;;;9.63;7.77;;;17.80;98.20;;;;;;4971304;28;20418;-58
2021/06/09 01:23:38;;;;;;;8.43;7.63;;;17.90;98.10;;;;;;4975873;28;20427;-58
2021/06/09 01:26:07;;;;;;;8.37;7.77;;;17.80;98.30;;;;;;4972435;28;20656;-59
2021/06/09 01:28:39;;;;;;;9.33;8.20;;;17.70;98.60;;;;;;4977505;28;20486;-58
2021/06/09 01:31:07;;;;;;;8.80;7.93;;;17.60;98.70;;;;;;4968342;28;20795;-58
2021/06/09 01:33:34;;;;;;;8.90;8.10;;;17.50;98.90;;;;;;4974529;28;20631;-58
2021/06/09 01:36:01;;;;;;;8.33;7.50;;;17.50;99.10;;;;;;4979259;28;20478;-59
2021/06/09 01:38:28;;;;;;;7.43;6.73;;;18.00;99.30;;;;;;4978242;28;20519;-59
2021/06/09 01:40:55;;;;;;;8.77;7.97;;;17.60;99.00;;;;;;4972814;28;20477;-59
2021/06/09 01:43:22;;;;;;;7.80;7.10;;;17.60;98.90;;;;;;4971952;28;20504;-58
2021/06/09 01:45:51;;;;;;;7.23;6.50;;;17.80;98.60;;;;;;4976204;28;20442;-58
2021/06/09 01:48:18;;;;;;;7.63;6.93;;;17.90;98.60;;;;;;4969001;28;20533;-59
2021/06/09 01:50:45;;;;;;;8.87;7.97;;;17.80;98.70;;;;;;5010166;28;20441;-59
2021/06/09 01:53:12;;;;;;;20.10;8.03;;;17.70;98.70;;;;;;4978901;28;20487;-59
2021/06/09 01:55:39;;;;;;;8.27;7.57;;;17.70;98.80;;;;;;4978782;28;20678;-58
2021/06/09 01:58:10;;;;;;;7.90;7.20;;;17.80;98.70;;;;;;4972796;28;20808;-58
2021/06/09 02:00:45;;;;;;;7.87;7.27;;;17.80;98.70;;;;;;4966088;28;20439;-59
2021/06/09 02:03:13;;;;;;;7.23;6.63;;;17.80;98.60;;;;;;4964783;28;20490;-58
2021/06/09 02:05:41;;;;;;;7.40;6.80;;;17.80;98.60;;;;;;4967191;28;20754;-60
2021/06/09 02:08:11;;;;;;;7.27;6.70;;;17.80;98.50;;;;;;4968897;28;20447;-59
2021/06/09 02:10:40;;;;;;;7.47;6.87;;;17.80;98.70;;;;;;4978318;28;20448;-58
2021/06/09 02:13:14;;;;;;;7.67;6.97;;;17.70;98.90;;;;;;4979653;28;20422;-59
2021/06/09 02:15:46;;;;;;;7.67;7.07;;;17.00;98.70;;;;;;4976741;28;20461;-60
2021/06/09 02:18:16;;;;;;;7.67;7.07;;;17.60;99.00;;;;;;4978077;28;20593;-59
2021/06/09 02:20:50;;;;;;;9.10;7.93;;;17.60;99.10;;;;;;4979615;28;20462;-59
2021/06/09 02:23:21;;;;;;;7.43;6.33;;;17.60;98.90;;;;;;4976295;28;20698;-59
2021/06/09 02:25:53;;;;;;;9.47;7.43;;;17.60;98.90;;;;;;4977440;28;20813;-60
2021/06/09 02:28:22;;;;;;;8.50;7.40;;;17.70;98.90;;;;;;4981093;28;20442;-58
2021/06/09 02:30:49;;;;;;;7.00;6.40;;;17.90;98.80;;;;;;4980582;28;20425;-60
2021/06/09 02:33:20;;;;;;;10.13;7.53;;;18.00;98.60;;;;;;4979095;28;20799;-60
2021/06/09 02:35:48;;;;;;;7.30;6.70;;;18.00;98.60;;;;;;4969635;28;20466;-58
2021/06/09 02:38:17;;;;;;;7.00;6.40;;;17.90;98.90;;;;;;4963247;28;20646;-58
2021/06/09 02:40:49;;;;;;;7.83;7.03;;;17.60;99.20;;;;;;4968251;28;20805;-59
2021/06/09 02:43:16;;;;;;;8.70;7.90;;;17.50;99.50;;;;;;4980729;28;20474;-59
2021/06/09 02:45:49;;;;;;;7.27;6.57;;;17.40;99.90;;;;;;4980209;28;20434;-59
2021/06/09 02:48:19;;;;;;;7.57;6.87;;;17.30;99.90;;;;;;4979717;28;20423;-58
2021/06/09 02:50:46;;;;;;;7.90;7.20;;;17.30;99.90;;;;;;4980854;28;20631;-58
2021/06/09 02:53:31;;;;;;;7.17;6.60;;;17.10;99.90;;;;;;4975353;28;20486;-58
2021/06/09 02:56:33;;;;;;;7.10;6.50;;;16.90;99.90;;;;;;4974701;28;20805;-59
2021/06/09 02:59:38;;;;;;;9.47;6.90;;;16.90;99.90;;;;;;4993591;28;20464;-57
2021/06/09 03:02:17;;;;;;;10.37;8.20;;;16.70;99.90;;;;;;4982214;28;20455;-58
2021/06/09 03:05:20;;;;;;;9.70;6.73;;;16.80;99.90;;;;;;4981852;28;20704;-56
2021/06/09 03:07:59;;;;;;;7.70;6.93;;;16.80;99.90;;;;;;4965487;28;20682;-58
2021/06/09 03:10:56;;;;;;;7.47;6.73;;;16.80;99.90;;;;;;4979413;28;20464;-58
2021/06/09 03:13:39;;;;;;;6.50;5.83;;;16.70;99.90;;;;;;4970836;28;20495;-58
2021/06/09 03:16:19;;;;;;;9.47;8.57;;;16.80;99.90;;;;;;4980569;28;20424;-59
2021/06/09 03:18:50;;;;;;;8.10;7.30;;;16.90;99.90;;;;;;4981231;28;20484;-58
2021/06/09 03:21:37;;;;;;;6.97;6.40;;;16.80;99.90;;;;;;4978374;28;20426;-58
2021/06/09 03:24:21;;;;;;;6.40;5.77;;;16.80;99.90;;;;;;4974808;28;20438;-57
2021/06/09 03:26:56;;;;;;;6.97;6.30;;;16.80;99.90;;;;;;4980736;28;20846;-59
2021/06/09 03:29:42;;;;;;;8.30;6.57;;;17.00;99.90;;;;;;4978591;28;20447;-57
2021/06/09 03:32:19;;;;;;;7.17;6.57;;;17.30;99.90;;;;;;4971769;28;20444;-58
2021/06/09 03:34:53;;;;;;;6.23;5.40;;;17.60;99.90;;;;;;4978208;28;20505;-58
2021/06/09 03:37:23;;;;;;;7.47;6.00;;;18.00;99.40;;;;;;4981266;28;20410;-58
2021/06/09 03:39:57;;;;;;;6.10;5.70;;;18.40;98.80;;;;;;4977297;28;20511;-57
2021/06/09 03:42:30;;;;;;;6.00;5.50;;;19.10;97.70;;;;;;4980491;28;20446;-57
2021/06/09 03:44:59;;;;;;;7.70;7.00;;;19.60;96.50;;;;;;4978076;28;21903;-58
2021/06/09 03:47:27;;;;;;;12.00;8.30;;;20.20;95.60;;;;;;4979259;28;20448;-58
2021/06/09 03:49:55;;;;;;;8.03;7.37;;;20.60;95.00;;;;;;4979643;28;20427;-58
2021/06/09 03:52:23;;;;;;;8.53;7.70;;;20.80;94.40;;;;;;4980296;28;20588;-59
2021/06/09 03:54:58;;;;;;;7.30;6.70;;;20.70;94.20;;;;;;4980386;28;20526;-57
2021/06/09 03:57:26;;;;;;;12.80;7.57;;;20.70;94.20;;;;;;5011219;28;20447;-58
2021/06/09 03:59:54;;;;;;;8.80;8.10;;;21.10;93.80;;;;;;4980248;28;20452;-60
2021/06/09 04:02:23;;;;;;;9.70;8.90;;;21.20;93.60;;;;;;4965473;28;20416;-58
2021/06/09 04:04:53;;;;;;;7.27;6.77;;;21.00;93.90;;;;;;4980989;28;20431;-59
2021/06/09 04:07:23;;;;;;;8.90;8.20;;;20.50;94.40;;;;;;4966704;28;20478;-58
2021/06/09 04:09:52;;;;;;;9.23;7.00;;;20.30;94.90;;;;;;4960820;28;20449;-59
2021/06/09 04:12:21;;;;;;;7.90;7.17;;;20.00;95.30;;;;;;4972776;28;20478;-59
2021/06/09 04:14:50;;;;;;;9.37;8.53;;;19.90;95.40;;;;;;4980499;28;20649;-59
2021/06/09 04:17:23;;;;;;;7.93;7.33;;;19.70;95.70;;;;;;4979306;28;20589;-60
2021/06/09 04:19:52;;;;;;;9.93;7.73;;;19.60;95.80;;;;;;4979447;28;20444;-58
2021/06/09 04:22:22;;;;;;;8.60;7.37;;;19.40;96.10;;;;;;4979361;28;20474;-59
2021/06/09 04:24:50;;;;;;;7.60;7.00;;;19.40;96.20;;;;;;4976610;28;20735;-59
2021/06/09 04:27:27;;;;;;;8.60;7.80;;;19.20;96.50;;;;;;4970134;28;20483;-58
2021/06/09 04:29:55;;;;;;;9.67;8.70;;;19.20;96.60;;;;;;4971590;28;20566;-60
2021/06/09 04:32:24;;;;;;;13.30;8.20;;;19.50;96.40;;;;;;4970043;28;20783;-59
2021/06/09 04:34:54;;;;;;;7.67;7.10;;;19.60;96.30;;;;;;4975926;28;20458;-59
2021/06/09 04:37:23;;;;;;;13.27;9.80;;;19.80;96.10;;;;;;4971287;28;20446;-59
2021/06/09 04:39:52;;;;;;;8.23;7.43;;;20.00;95.60;;;;;;4968445;28;20439;-60
2021/06/09 04:42:21;;;;;;;7.10;6.50;;;20.20;94.90;;;;;;4964419;28;20500;-58
2021/06/09 04:44:48;;;;;;;7.47;6.97;;;20.20;95.00;;;;;;4974653;28;20749;-58
2021/06/09 04:47:15;;;;;;;7.83;6.93;;;20.30;94.50;;;;;;4978193;28;20873;-59
2021/06/09 04:49:44;;;;;;;6.90;6.40;;;20.60;94.20;;;;;;4977333;28;20630;-59
2021/06/09 04:52:13;;;;;;;10.47;7.23;;;20.70;93.70;;;;;;4978677;28;20446;-58
2021/06/09 04:54:40;;;;;;;7.50;7.00;;;20.90;93.70;;;;;;4978578;28;20527;-59
2021/06/09 04:57:08;;;;;;;13.60;8.53;;;20.90;93.60;;;;;;4972680;28;20440;-59
2021/06/09 04:59:35;;;;;;;7.37;6.80;;;20.90;93.70;;;;;;4973059;28;20751;-59
2021/06/09 05:02:02;;;;;;;9.57;8.77;;;21.00;93.60;;;;;;4971462;28;20446;-60
2021/06/09 05:04:30;;;;;;;9.53;8.40;;;21.00;93.90;;;;;;4970605;28;20452;-59
2021/06/09 05:06:57;;;;;;;9.23;7.73;;;20.80;94.00;;;;;;4972658;28;20420;-59
2021/06/09 05:09:25;;;;;;;9.70;8.80;;;20.60;94.30;;;;;;4966260;28;20566;-58
2021/06/09 05:12:04;;;;;;;7.97;7.37;;;20.50;94.60;;;;;;4966903;28;20763;-60
2021/06/09 05:14:36;;;;;;;9.33;8.43;;;20.30;94.70;;;;;;4975266;28;20447;-59
2021/06/09 05:17:05;;;;;;;8.67;7.87;;;19.90;95.50;;;;;;4973328;28;20507;-60
2021/06/09 05:19:35;;;;;;;8.93;8.13;;;19.80;95.90;;;;;;4969615;28;20428;-59
2021/06/09 05:22:08;;;;;;;8.23;7.50;;;20.00;95.60;;;;;;4977970;28;20451;-59
2021/06/09 05:24:37;;;;;;;7.07;6.47;;;20.40;95.10;;;;;;4973281;28;20753;-60
2021/06/09 05:27:06;;;;;;;8.20;7.50;;;20.90;94.20;;;;;;4975533;28;20449;-59
2021/06/09 05:29:37;;;;;;;8.00;7.40;;;21.40;93.40;;;;;;4968051;28;20445;-59
2021/06/09 05:32:07;;;;;;;8.07;7.40;;;21.70;93.20;;;;;;4970809;28;20501;-60
2021/06/09 05:34:39;;;;;;;7.83;7.23;;;21.70;92.70;;;;;;4973868;28;20539;-60
2021/06/09 05:37:09;;;;;;;7.73;7.13;;;21.50;93.00;;;;;;4974410;28;20420;-59
2021/06/09 05:39:38;;;;;;;7.00;6.33;;;21.70;92.60;;;;;;4976628;28;20492;-61
2021/06/09 05:42:10;;;;;;;6.83;6.37;;;22.10;91.80;;;;;;4976336;28;20522;-59
2021/06/09 05:44:41;;;;;;;8.63;6.67;;;22.30;90.90;;;;;;5001660;28;20480;-60
2021/06/09 05:47:09;;;;;;;6.60;6.10;;;21.90;91.00;;;;;;4976479;28;20839;-59
2021/06/09 05:49:36;;;;;;;5.50;5.20;;;21.90;90.90;;;;;;4981744;28;20592;-60
2021/06/09 05:52:08;;;;;;;6.20;5.80;;;21.60;90.80;;;;;;4969232;28;20417;-60
2021/06/09 05:54:42;;;;;;;7.13;6.60;;;21.60;91.10;;;;;;4958262;28;20497;-59
2021/06/09 05:57:11;;;;;;;6.33;5.93;;;21.30;91.10;;;;;;4973656;28;20423;-59
2021/06/09 05:59:40;;;;;;;6.47;6.07;;;21.50;91.00;;;;;;4978641;28;20452;-60
2021/06/09 06:02:07;;;;;;;6.10;5.73;;;21.60;90.90;;;;;;4981997;28;20446;-61
2021/06/09 06:04:35;;;;;;;6.70;6.20;;;21.90;90.70;;;;;;4976053;28;20455;-59
2021/06/09 06:07:03;;;;;;;7.27;6.67;;;22.10;90.30;;;;;;4977547;28;20447;-60
2021/06/09 06:09:31;;;;;;;7.23;6.73;;;22.10;89.00;;;;;;4981719;28;20473;-60
2021/06/09 06:11:59;;;;;;;6.47;5.87;;;22.10;90.00;;;;;;4979487;28;20769;-59
2021/06/09 06:14:27;;;;;;;6.60;6.20;;;22.30;88.40;;;;;;4980224;28;20564;-60
2021/06/09 06:16:55;;;;;;;6.87;6.37;;;22.40;88.50;;;;;;4980954;28;20499;-59
2021/06/09 06:19:32;;;;;;;7.13;6.73;;;22.90;86.90;;;;;;4980330;28;20755;-60
2021/06/09 06:22:09;;;;;;;7.60;7.00;;;23.20;85.70;;;;;;4979162;28;20452;-59
2021/06/09 06:24:41;;;;;;;6.90;6.53;;;23.70;84.60;;;;;;4978275;28;20855;-60
2021/06/09 06:27:10;;;;;;;7.83;7.23;;;24.60;80.60;;;;;;4981574;28;20551;-60
2021/06/09 06:29:45;;;;;;;7.20;6.80;;;25.10;79.00;;;;;;4978947;28;20472;-60
2021/06/09 06:32:15;;;;;;;7.73;6.40;;;25.10;78.80;;;;;;4971878;28;20445;-59
2021/06/09 06:34:50;;;;;;;6.83;6.37;;;25.20;77.40;;;;;;4978655;28;20723;-60
2021/06/09 06:37:18;;;;;;;7.07;6.67;;;24.90;77.60;;;;;;4973303;28;20444;-59
2021/06/09 06:39:46;;;;;;;9.40;6.77;;;24.50;78.30;;;;;;4975406;28;20837;-60
2021/06/09 06:42:13;;;;;;;6.60;6.20;;;24.40;78.50;;;;;;4979507;28;21025;-60
2021/06/09 06:44:41;;;;;;;6.50;6.20;;;24.80;77.70;;;;;;5010544;28;20444;-60
2021/06/09 06:47:09;;;;;;;6.40;6.10;;;25.70;75.80;;;;;;4980741;28;20621;-59
2021/06/09 06:49:38;;;;;;;7.03;6.63;;;27.20;70.90;;;;;;4975888;28;20454;-59
2021/06/09 06:52:06;;;;;;;7.77;7.27;;;28.50;65.10;;;;;;4978995;28;20783;-60
2021/06/09 06:54:34;;;;;;;6.80;6.40;;;29.30;60.30;;;;;;4979547;28;20699;-60
2021/06/09 06:57:02;;;;;;;6.20;5.90;;;29.50;58.70;;;;;;4976720;28;20437;-60
2021/06/09 06:59:35;;;;;;;7.07;6.77;;;30.60;56.30;;;;;;4972366;28;20656;-59
2021/06/09 07:02:05;;;;;;;7.50;7.00;;;31.20;54.20;;;;;;4979167;28;20445;-59
2021/06/09 07:04:33;;;;;;;8.03;7.43;;;31.60;52.20;;;;;;4980681;28;20449;-59
2021/06/09 07:07:00;;;;;;;7.97;7.60;;;32.70;49.50;;;;;;4979664;28;20441;-59
2021/06/09 07:09:27;;;;;;;7.60;7.20;;;33.40;48.50;;;;;;4972581;28;20446;-59
2021/06/09 07:11:55;;;;;;;8.10;7.53;;;33.50;46.80;;;;;;4974351;28;20452;-60
2021/06/09 07:14:28;;;;;;;7.90;7.50;;;33.60;45.90;;;;;;4979712;28;20496;-59
2021/06/09 07:17:00;;;;;;;8.33;7.90;;;34.50;44.20;;;;;;4979402;28;20720;-59
2021/06/09 07:19:29;;;;;;;8.60;8.20;;;33.10;44.50;;;;;;4968989;28;20693;-60
2021/06/09 07:22:13;;;;;;;7.67;7.37;;;33.10;45.40;;;;;;4976644;28;20474;-59
2021/06/09 07:24:41;;;;;;;7.63;7.30;;;33.50;44.60;;;;;;4977539;28;20480;-59
2021/06/09 07:27:09;;;;;;;7.93;7.63;;;33.70;43.70;;;;;;4970579;28;20785;-60
2021/06/09 07:29:37;;;;;;;6.93;6.63;;;33.60;44.20;;;;;;4973482;28;20453;-60
2021/06/09 07:32:08;;;;;;;8.40;7.90;;;34.90;41.90;;;;;;4977634;28;20766;-60
2021/06/09 07:34:35;;;;;;;7.73;7.43;;;36.00;40.70;;;;;;4979761;28;20650;-59
2021/06/09 07:37:07;;;;;;;7.77;7.33;;;36.30;38.90;;;;;;4980195;28;20647;-60
2021/06/09 07:39:41;;;;;;;8.17;7.77;;;36.30;39.30;;;;;;5010981;28;20492;-59
2021/06/09 07:42:14;;;;;;;8.30;7.90;;;36.90;36.90;;;;;;4967555;28;20468;-60
2021/06/09 07:44:56;;;;;;;8.80;8.40;;;37.30;36.70;;;;;;4978589;28;20448;-60
2021/06/09 07:47:24;;;;;;;7.20;6.90;;;37.60;35.80;;;;;;4962358;28;20441;-60
2021/06/09 07:49:53;;;;;;;7.33;7.03;;;36.50;36.40;;;;;;4972786;28;20687;-60
2021/06/09 07:52:22;;;;;;;8.27;7.97;;;36.20;36.40;;;;;;4971091;28;20657;-61
2021/06/09 07:54:52;;;;;;;7.60;7.30;;;35.60;37.30;;;;;;4963623;28;20493;-60
2021/06/09 07:57:21;;;;;;;8.10;7.80;;;35.90;37.30;;;;;;4967008;28;20442;-59
2021/06/09 07:59:51;;;;;;;8.03;7.63;;;36.10;37.10;;;;;;4965424;28;20446;-60
2021/06/09 08:02:20;;;;;;;7.40;7.10;;;37.00;36.00;;;;;;4964666;28;20687;-59
2021/06/09 08:04:47;;;;;;;8.33;7.83;;;36.80;35.40;;;;;;4973079;28;20452;-60
2021/06/09 08:07:16;;;;;;;7.50;7.10;;;36.70;35.60;;;;;;4965665;28;21025;-61
2021/06/09 08:09:44;;;;;;;7.93;7.43;;;34.30;38.60;;;;;;4964320;28;20451;-61
2021/06/09 08:12:12;;;;;;;7.10;6.70;;;34.40;39.20;;;;;;4962962;28;20468;-61
2021/06/09 08:14:41;;;;;;;7.47;7.03;;;35.70;37.50;;;;;;4963743;28;20465;-59
2021/06/09 08:17:09;;;;;;;7.60;7.30;;;37.10;35.40;;;;;;4964319;28;20455;-59
2021/06/09 08:19:37;;;;;;;7.60;7.30;;;35.40;36.20;;;;;;4966457;28;20519;-59
2021/06/09 08:22:06;;;;;;;7.53;7.13;;;35.50;35.20;;;;;;4967329;28;20775;-60
2021/06/09 08:24:35;;;;;;;8.27;7.87;;;35.60;34.90;;;;;;4968177;28;20772;-60
2021/06/09 08:27:03;;;;;;;7.37;7.10;;;35.70;34.80;;;;;;4964615;28;20452;-60
2021/06/09 08:29:32;;;;;;;7.87;7.47;;;36.90;33.80;;;;;;4965688;28;20451;-60
2021/06/09 08:31:59;;;;;;;7.53;7.23;;;37.60;33.00;;;;;;4969824;28;20448;-60
2021/06/09 08:34:26;;;;;;;6.70;6.50;;;37.00;32.20;;;;;;4976828;28;20460;-59
2021/06/09 08:36:55;;;;;;;7.30;7.00;;;35.60;33.10;;;;;;4973271;28;20492;-61
2021/06/09 08:39:29;;;;;;;7.00;6.80;;;35.30;34.20;;;;;;5148249;27;20297;-86
2021/06/09 08:41:57;;;;;;;6.93;6.73;;;36.50;33.30;;;;;;5146825;27;20722;-86
2021/06/09 08:44:25;;;;;;;6.83;6.63;;;36.80;30.60;;;;;;5131135;27;20430;-86
2021/06/09 08:46:57;;;;;;;7.87;7.47;;;36.20;31.70;;;;;;5123902;27;20418;-85
2021/06/09 08:49:25;;;;;;;6.67;6.37;;;36.40;31.50;;;;;;5134561;27;20653;-84
2021/06/09 08:51:53;;;;;;;7.43;6.97;;;36.80;30.60;;;;;;5123966;28;20425;-81
2021/06/09 08:54:22;;;;;;;7.60;7.30;;;34.60;33.00;;;;;;5146185;27;20429;-83
2021/06/09 08:56:53;;;;;;;6.37;6.17;;;34.90;33.20;;;;;;5142690;27;20428;-86
2021/06/09 08:59:24;;;;;;;7.07;6.80;;;35.30;31.50;;;;;;5151999;27;20468;-85
2021/06/09 09:01:52;;;;;;;7.53;7.20;;;35.60;31.30;;;;;;5158879;27;20443;-83
2021/06/09 09:04:21;;;;;;;6.83;6.63;;;36.50;30.10;;;;;;5145976;27;20616;-83
2021/06/09 09:06:48;;;;;;;6.90;6.60;;;36.30;31.40;;;;;;5107950;28;20436;-84
2021/06/09 09:09:15;;;;;;;6.50;6.30;;;35.30;30.00;;;;;;5155041;27;20434;-85
2021/06/09 09:11:43;;;;;;;5.97;5.77;;;33.30;31.50;;;;;;5143878;27;20439;-85
2021/06/09 09:14:15;;;;;;;6.60;6.40;;;32.50;30.90;;;;;;5147810;27;20554;-84
2021/06/09 09:17:11;;;;;;;6.50;6.23;;;32.60;32.90;;;;;;5142037;27;20432;-83
2021/06/09 09:19:41;;;;;;;6.47;6.27;;;33.50;32.70;;;;;;5124008;28;20418;-88
2021/06/09 09:22:17;;;;;;;6.43;6.23;;;34.70;30.40;;;;;;5142576;28;20437;-84
2021/06/09 09:24:48;;;;;;;7.00;6.70;;;34.90;29.40;;;;;;5139191;27;20638;-83
2021/06/09 09:27:26;;;;;;;6.17;5.97;;;34.70;30.00;;;;;;5131928;27;20498;-81
2021/06/09 09:30:05;;;;;;;6.57;6.37;;;34.60;30.50;;;;;;5137901;27;20476;-87
2021/06/09 09:32:33;;;;;;;6.70;6.30;;;34.40;30.50;;;;;;5124220;27;20448;-84
2021/06/09 09:35:14;;;;;;;6.00;5.70;;;32.20;31.40;;;;;;5136756;27;20660;-83
2021/06/09 09:37:42;;;;;;;6.10;5.70;;;29.40;35.70;;;;;;5119014;28;20530;-84
2021/06/09 09:40:18;;;;;;;6.53;6.23;;;28.30;38.00;;;;;;5147533;27;20432;-88
2021/06/09 09:42:51;;;;;;;6.00;5.70;;;27.90;38.90;;;;;;5144584;27;20429;-83
2021/06/09 09:45:27;;;;;;;6.10;5.90;;;27.40;40.00;;;;;;5122651;27;20441;-87
2021/06/09 09:48:14;;;;;;;5.50;5.30;;;26.80;40.10;;;;;;5117618;28;20444;-86
2021/06/09 09:50:52;;;;;;;5.80;5.40;;;26.50;40.60;;;;;;5116563;28;20424;-82
2021/06/09 09:53:37;;;;;;;5.50;5.30;;;26.30;41.10;;;;;;5109857;28;20435;-83
2021/06/09 09:56:10;;;;;;;5.37;5.17;;;26.20;41.00;;;;;;5126710;28;20586;-86
2021/06/09 09:58:51;;;;;;;5.67;5.47;;;25.90;41.80;;;;;;5127619;28;20466;-84
2021/06/09 10:01:24;;;;;;;5.60;5.40;;;26.00;42.80;;;;;;5095017;28;20452;-86
2021/06/09 10:03:55;;;;;;;5.13;4.93;;;25.70;42.70;;;;;;5127174;28;20445;-86
2021/06/09 10:06:34;;;;;;;5.20;5.00;;;25.70;43.30;;;;;;5094420;28;20434;-84
2021/06/09 10:09:20;;;;;;;5.90;5.33;;;25.40;43.60;;;;;;5109238;28;20431;-81
2021/06/09 10:11:50;;;;;;;5.43;5.23;;;25.50;44.70;;;;;;5120000;28;20487;-84
2021/06/09 10:14:27;;;;;;;5.70;5.50;;;25.60;45.10;;;;;;5126469;28;20434;-83
2021/06/09 10:16:59;;;;;;;5.17;4.80;;;25.80;45.10;;;;;;5118169;28;20443;-83
2021/06/09 10:19:33;;;;;;;5.90;5.50;;;25.80;45.20;;;;;;5122996;28;20507;-86
2021/06/09 10:22:06;;;;;;;5.53;5.33;;;25.60;46.00;;;;;;5099450;28;20432;-84
2021/06/09 10:24:51;;;;;;;4.97;4.77;;;25.40;45.70;;;;;;5126466;28;20429;-84
2021/06/09 10:27:31;;;;;;;4.90;4.70;;;25.20;45.00;;;;;;5115623;28;20439;-84
2021/06/09 10:30:00;;;;;;;6.00;5.70;;;24.70;45.70;;;;;;5126104;28;20451;-84
2021/06/09 10:32:31;;;;;;;5.63;5.33;;;24.80;47.60;;;;;;5126065;28;20410;-84
2021/06/09 10:35:02;;;;;;;4.97;4.77;;;25.10;46.90;;;;;;5109656;28;20619;-82
2021/06/09 10:37:32;;;;;;;5.50;5.30;;;25.30;45.30;;;;;;5120897;27;20473;-84
2021/06/09 10:40:05;;;;;;;5.73;5.47;;;25.30;46.30;;;;;;5094079;28;20800;-86
2021/06/09 10:42:35;;;;;;;4.87;4.67;;;25.30;46.70;;;;;;5108759;28;20433;-82
2021/06/09 10:45:07;;;;;;;4.90;4.70;;;25.00;45.70;;;;;;5125789;27;20430;-84
2021/06/09 10:47:40;;;;;;;5.10;4.90;;;24.80;45.90;;;;;;5108578;28;20755;-83
2021/06/09 10:50:09;;;;;;;4.83;4.63;;;24.80;46.10;;;;;;5126974;27;20435;-85
2021/06/09 10:52:43;;;;;;;4.77;4.60;;;24.60;46.40;;;;;;5127198;27;20405;-82
2021/06/09 10:55:11;;;;;;;5.20;4.90;;;24.40;46.10;;;;;;5126244;27;20743;-85
2021/06/09 10:57:38;;;;;;;5.70;5.50;;;24.30;45.60;;;;;;5129496;27;20804;-83
2021/06/09 11:00:12;;;;;;;5.10;5.00;;;24.30;46.90;;;;;;5126432;28;20616;-83
2021/06/09 11:02:41;;;;;;;4.70;4.50;;;24.10;46.80;;;;;;5107659;27;20420;-85
2021/06/09 11:05:11;;;;;;;6.83;5.00;;;24.00;47.60;;;;;;5105671;28;20442;-86
2021/06/09 11:07:43;;;;;;;4.97;4.77;;;24.20;48.30;;;;;;5125082;28;20723;-83
2021/06/09 11:10:38;;;;;;;4.90;4.70;;;24.50;48.20;;;;;;5132066;27;20739;-84
2021/06/09 11:13:06;;;;;;;4.87;4.67;;;24.70;47.90;;;;;;5109199;28;20441;-83
2021/06/09 11:15:34;;;;;;;5.20;5.00;;;24.70;47.90;;;;;;5105762;28;20430;-85
2021/06/09 11:18:14;;;;;;;4.70;4.50;;;24.50;48.00;;;;;;5126855;27;20799;-86
2021/06/09 11:20:44;;;;;;;5.40;5.00;;;24.50;47.20;;;;;;5125201;28;20506;-81
2021/06/09 11:23:26;;;;;;;5.00;4.60;;;24.40;47.10;;;;;;5125280;28;20467;-83
2021/06/09 11:25:53;;;;;;;5.10;4.80;;;24.30;47.10;;;;;;5125676;28;20442;-86
2021/06/09 11:28:32;;;;;;;4.70;4.50;;;24.30;46.60;;;;;;5096100;28;20600;-84
2021/06/09 11:31:23;;;;;;;4.90;4.70;;;24.10;47.20;;;;;;5126850;27;20677;-85
2021/06/09 11:34:01;;;;;;;4.90;4.70;;;24.10;47.30;;;;;;5115539;28;20480;-82
2021/06/09 11:36:36;;;;;;;4.80;4.60;;;24.20;47.30;;;;;;5114603;27;20627;-81
2021/06/09 11:39:21;;;;;;;4.80;4.50;;;24.10;47.80;;;;;;5124632;28;20538;-84
2021/06/09 11:41:49;;;;;;;4.67;4.47;;;24.20;48.50;;;;;;5123805;28;20418;-84
2021/06/09 11:44:32;;;;;;;4.70;4.50;;;24.00;47.90;;;;;;5126904;27;20454;-82
2021/06/09 11:47:20;;;;;;;5.27;4.80;;;24.10;47.40;;;;;;5088962;28;20447;-81
2021/06/09 11:49:49;;;;;;;4.50;4.30;;;23.90;45.60;;;;;;5089991;27;20470;-82
2021/06/09 11:52:17;;;;;;;4.53;4.33;;;24.00;46.60;;;;;;5108371;28;20449;-81
2021/06/09 11:54:44;;;;;;;4.20;4.10;;;24.10;46.50;;;;;;5125713;28;20445;-84
2021/06/09 11:57:18;;;;;;;4.57;4.37;;;24.10;46.20;;;;;;5126372;28;20429;-84
2021/06/09 12:00:07;;;;;;;4.60;4.40;;;24.40;46.40;;;;;;5134495;27;20857;-85
2021/06/09 12:02:35;;;;;;;5.93;5.60;;;24.50;45.60;;;;;;5143349;27;20549;-85
2021/06/09 12:05:03;;;;;;;4.80;4.60;;;24.20;47.00;;;;;;5125041;28;20430;-84
2021/06/09 12:07:33;;;;;;;4.93;4.63;;;24.40;47.30;;;;;;5137885;27;20433;-83
2021/06/09 12:10:04;;;;;;;5.00;4.80;;;24.40;47.20;;;;;;5112489;28;20497;-84
2021/06/09 12:12:32;;;;;;;5.13;4.63;;;24.20;46.40;;;;;;5124234;28;20647;-87
2021/06/09 12:15:09;;;;;;;4.43;4.23;;;24.10;47.60;;;;;;5107181;28;20409;-85
2021/06/09 12:17:39;;;;;;;4.90;4.50;;;23.90;48.70;;;;;;5126931;27;20738;-84
2021/06/09 12:20:13;;;;;;;4.63;4.43;;;24.20;48.90;;;;;;5126346;27;20478;-83
2021/06/09 12:22:55;;;;;;;4.50;4.30;;;24.50;48.90;;;;;;5124199;28;20729;-85
2021/06/09 12:25:25;;;;;;;4.43;4.23;;;24.60;48.60;;;;;;5116687;27;20434;-82
2021/06/09 12:28:03;;;;;;;4.27;4.07;;;24.50;49.10;;;;;;5124920;28;20430;-84
2021/06/09 12:30:33;;;;;;;4.93;4.73;;;24.60;49.90;;;;;;5112222;28;20505;-83
2021/06/09 12:33:05;;;;;;;4.20;4.10;;;24.90;50.00;;;;;;5131442;27;20923;-86
2021/06/09 12:35:33;;;;;;;4.73;4.53;;;25.10;49.30;;;;;;5126551;28;20476;-85
2021/06/09 12:38:08;;;;;;;4.80;4.60;;;25.20;49.10;;;;;;5119621;28;20465;-84
2021/06/09 12:40:41;;;;;;;5.30;4.80;;;25.10;48.80;;;;;;5123600;28;20812;-82
2021/06/09 12:43:12;;;;;;;5.07;4.73;;;25.20;48.90;;;;;;5123387;28;20578;-83
2021/06/09 12:45:43;;;;;;;4.90;4.60;;;25.00;47.70;;;;;;5116545;28;20435;-82
2021/06/09 12:48:18;;;;;;;5.07;4.80;;;25.00;47.70;;;;;;5123725;28;21190;-83
2021/06/09 12:50:54;;;;;;;4.77;4.57;;;25.10;48.10;;;;;;5123090;28;20612;-83
2021/06/09 12:53:22;;;;;;;4.70;4.50;;;25.00;48.10;;;;;;5134530;28;20642;-83
2021/06/09 12:55:54;;;;;;;5.00;4.80;;;24.70;47.80;;;;;;5137265;28;20430;-85
2021/06/09 12:58:27;;;;;;;4.60;4.40;;;24.50;48.10;;;;;;5128387;28;20430;-84
2021/06/09 13:01:00;;;;;;;4.43;4.23;;;24.60;49.50;;;;;;5102932;28;20457;-82
2021/06/09 13:03:36;;;;;;;4.87;4.67;;;24.70;47.60;;;;;;5119070;28;20595;-83
2021/06/09 13:06:19;;;;;;;4.90;4.70;;;24.60;48.40;;;;;;5126204;28;20446;-84
2021/06/09 13:08:49;;;;;;;4.80;4.60;;;24.60;49.40;;;;;;5136641;28;20615;-83